Terminal Aerodrome Forecast
Issued by NWS Wilmington, OH

Home | Current Version | Previous Version | Text Only | Print | Product List | Glossary On
Versions: 1 2 3 4 5 6 7 8 9 10 11 12 13 14 15 16 17 18 19 20 21 22 23 24 25 26 27 28 29 30 31 32
297
FTUS41 KILN 012032 AAA
TAFCVG
TAF AMD
KCVG 012032Z 0121/0224 23006KT P6SM BKN040
     FM012200 23006KT P6SM VCTS BKN040CB
     FM020100 21003KT P6SM VCSH BKN040
     FM021100 29004KT P6SM SCT025 BKN035
     FM021500 32005KT P6SM BKN025
     FM021900 34005KT P6SM VCSH BKN035=

USA.gov is the U.S. government's official web portal to all federal, state and local government web resources and services.